createdAt,value
2023-03-29T00:01:43.573Z,2.42
2023-03-29T00:04:47.272Z,2.55
2023-03-29T00:07:54.522Z,2.77
2023-03-29T00:10:59.556Z,2.70
2023-03-29T00:14:02.824Z,2.30
2023-03-29T00:17:06.700Z,1.65
2023-03-29T00:20:10.491Z,2.10
2023-03-29T00:23:13.542Z,1.70
2023-03-29T00:26:16.605Z,1.73
2023-03-29T00:29:19.870Z,1.50
2023-03-29T00:32:22.802Z,1.80
2023-03-29T00:35:25.959Z,1.87
2023-03-29T00:38:28.869Z,1.58
2023-03-29T00:41:32.011Z,1.65
2023-03-29T00:44:59.742Z,2.00
2023-03-29T00:48:07.283Z,2.50
2023-03-29T00:51:14.534Z,2.20
2023-03-29T00:54:18.917Z,2.30
2023-03-29T00:57:26.483Z,1.80
2023-03-29T01:00:37.582Z,1.50
2023-03-29T01:03:46.716Z,2.58
2023-03-29T01:07:01.183Z,2.62
2023-03-29T01:10:19.707Z,4.10
2023-03-29T01:13:39.516Z,4.00
2023-03-29T01:16:42.779Z,3.60
2023-03-29T01:19:51.093Z,3.22
2023-03-29T01:23:03.082Z,2.87
2023-03-29T01:26:40.408Z,3.53
2023-03-29T01:29:50.278Z,3.87
2023-03-29T01:33:14.624Z,3.20
2023-03-29T01:36:37.865Z,4.27
2023-03-29T01:39:40.960Z,4.15
2023-03-29T01:43:19.412Z,4.87
2023-03-29T01:46:46.045Z,3.85
2023-03-29T01:50:02.019Z,5.53
2023-03-29T01:53:25.703Z,4.07
2023-03-29T01:56:30.196Z,3.65
2023-03-29T01:59:36.228Z,3.95
2023-03-29T02:02:43.503Z,3.00
2023-03-29T02:05:47.051Z,3.50
2023-03-29T02:08:51.697Z,6.28
2023-03-29T02:11:59.051Z,6.10
2023-03-29T02:15:02.318Z,5.87
2023-03-29T02:18:06.894Z,7.35
2023-03-29T02:21:21.636Z,6.65
2023-03-29T02:24:26.416Z,5.72
2023-03-29T02:27:30.259Z,6.53
2023-03-29T02:30:57.944Z,5.40
2023-03-29T02:34:09.031Z,5.55
2023-03-29T02:37:18.170Z,6.15
2023-03-29T02:40:24.009Z,5.87
2023-03-29T02:43:29.256Z,5.85
2023-03-29T02:46:32.828Z,11.77
2023-03-29T02:49:35.687Z,10.30
2023-03-29T02:52:43.506Z,12.15
2023-03-29T02:55:47.164Z,17.10
2023-03-29T02:58:50.773Z,20.75
2023-03-29T03:01:54.042Z,15.60
2023-03-29T03:04:58.049Z,8.82
2023-03-29T03:08:01.289Z,8.82
2023-03-29T03:11:06.154Z,6.50
2023-03-29T03:14:09.660Z,5.78
2023-03-29T03:17:12.853Z,5.90
2023-03-29T03:20:15.776Z,5.80
2023-03-29T03:23:19.376Z,6.72
2023-03-29T03:26:25.162Z,5.28
2023-03-29T03:29:29.162Z,7.70
2023-03-29T03:32:36.985Z,9.20
2023-03-29T03:35:42.857Z,10.82
2023-03-29T03:38:46.346Z,12.00
2023-03-29T03:41:49.449Z,10.63
2023-03-29T03:44:52.353Z,11.93
2023-03-29T03:47:56.907Z,9.52
2023-03-29T03:51:00.503Z,12.52
2023-03-29T03:54:05.830Z,13.55
2023-03-29T03:57:11.847Z,11.35
2023-03-29T04:00:21.650Z,8.52
2023-03-29T04:03:25.572Z,8.02
2023-03-29T04:06:30.819Z,4.87
2023-03-29T04:09:37.817Z,5.12
2023-03-29T04:12:42.175Z,5.22
2023-03-29T04:15:46.303Z,5.87
2023-03-29T04:18:50.482Z,6.03
2023-03-29T04:21:53.864Z,6.25
2023-03-29T04:24:57.570Z,7.10
2023-03-29T04:28:03.016Z,6.20
2023-03-29T04:31:12.673Z,6.13
2023-03-29T04:37:22.374Z,6.20
2023-03-29T04:40:25.704Z,6.43
2023-03-29T04:43:30.867Z,6.63
2023-03-29T04:46:35.033Z,6.87
2023-03-29T04:49:40.118Z,7.53
2023-03-29T04:52:45.763Z,8.68
2023-03-29T04:55:48.888Z,7.83
2023-03-29T04:58:52.420Z,8.55
2023-03-29T05:01:57.396Z,8.13
2023-03-29T05:05:00.800Z,7.37
2023-03-29T05:08:05.004Z,7.13
2023-03-29T05:11:11.103Z,5.25
2023-03-29T05:14:14.021Z,6.18
2023-03-29T05:17:17.306Z,5.75
2023-03-29T05:20:20.310Z,7.30
2023-03-29T05:23:24.038Z,6.87
2023-03-29T05:26:29.912Z,6.70
2023-03-29T05:29:33.322Z,7.37
2023-03-29T05:32:40.759Z,11.10
2023-03-29T05:35:44.429Z,12.32
2023-03-29T05:38:47.463Z,13.27
2023-03-29T05:41:50.889Z,11.90
2023-03-29T05:44:54.897Z,14.23
2023-03-29T05:47:58.912Z,11.57
2023-03-29T05:51:03.775Z,6.78
2023-03-29T05:54:07.251Z,6.75
2023-03-29T05:57:10.165Z,7.05
2023-03-29T06:00:22.658Z,7.18
2023-03-29T06:03:27.799Z,8.07
2023-03-29T06:06:32.046Z,7.57
2023-03-29T06:09:35.430Z,7.80
2023-03-29T06:12:39.085Z,6.32
2023-03-29T06:15:42.262Z,6.87
2023-03-29T06:18:45.492Z,5.78
2023-03-29T06:21:48.841Z,5.78
2023-03-29T06:24:52.938Z,5.77
2023-03-29T06:27:57.761Z,5.03
2023-03-29T06:31:03.632Z,6.12
2023-03-29T06:34:09.099Z,5.80
2023-03-29T06:37:14.228Z,6.30
2023-03-29T06:40:25.035Z,5.53
2023-03-29T06:43:28.111Z,5.07
2023-03-29T06:46:38.040Z,6.15
2023-03-29T06:49:41.533Z,5.75
2023-03-29T06:52:46.349Z,6.23
2023-03-29T06:55:52.316Z,5.20
2023-03-29T06:58:56.983Z,4.87
2023-03-29T07:02:01.181Z,4.97
2023-03-29T07:05:11.584Z,4.60
2023-03-29T07:08:16.703Z,3.60
2023-03-29T07:11:20.920Z,5.18
2023-03-29T07:14:28.893Z,4.00
2023-03-29T07:17:32.551Z,15.88
2023-03-29T07:20:38.807Z,5.13
2023-03-29T07:23:42.298Z,4.37
2023-03-29T07:27:00.205Z,4.10
2023-03-29T07:30:11.710Z,4.22
2023-03-29T07:33:15.037Z,4.47
2023-03-29T07:36:19.927Z,5.37
2023-03-29T07:39:23.244Z,7.50
2023-03-29T07:42:30.504Z,4.00
2023-03-29T07:45:34.022Z,8.00
2023-03-29T07:48:37.474Z,3.80
2023-03-29T07:51:40.393Z,2.20
2023-03-29T07:54:43.940Z,4.40
2023-03-29T07:57:47.120Z,6.00
2023-03-29T08:00:50.987Z,3.47
2023-03-29T08:03:55.403Z,4.35
2023-03-29T08:06:59.998Z,5.33
2023-03-29T08:10:04.258Z,3.23
2023-03-29T08:13:09.585Z,3.65
2023-03-29T08:16:13.215Z,3.30
2023-03-29T08:19:16.861Z,3.10
2023-03-29T08:22:22.213Z,2.83
2023-03-29T08:25:33.734Z,2.33
2023-03-29T08:28:36.873Z,2.62
2023-03-29T08:31:40.466Z,2.67
2023-03-29T08:34:44.150Z,2.10
2023-03-29T08:37:47.690Z,1.77
2023-03-29T08:40:50.955Z,2.77
2023-03-29T08:44:16.929Z,3.80
2023-03-29T08:47:30.084Z,2.85
2023-03-29T08:50:39.498Z,2.15
2023-03-29T08:53:47.195Z,2.83
2023-03-29T08:56:52.387Z,2.90
2023-03-29T08:59:58.663Z,2.20
2023-03-29T09:03:03.085Z,2.72
2023-03-29T09:06:09.204Z,2.20
2023-03-29T09:09:17.794Z,2.30
2023-03-29T09:12:44.572Z,1.27
2023-03-29T09:16:06.025Z,1.73
2023-03-29T09:19:25.968Z,2.12
2023-03-29T09:22:46.877Z,1.77
2023-03-29T09:25:59.141Z,1.60
2023-03-29T09:29:23.971Z,1.90
2023-03-29T09:32:44.361Z,1.70
2023-03-29T09:35:55.537Z,2.03
2023-03-29T09:38:59.914Z,2.37
2023-03-29T09:42:09.402Z,2.40
2023-03-29T09:45:13.473Z,2.53
2023-03-29T09:48:19.562Z,2.50
2023-03-29T09:51:28.486Z,2.30
2023-03-29T09:54:32.776Z,2.47
2023-03-29T09:57:40.976Z,2.07
2023-03-29T10:00:45.579Z,1.67
2023-03-29T10:03:53.602Z,2.22
2023-03-29T10:07:00.366Z,1.62
2023-03-29T10:10:08.437Z,1.50
2023-03-29T10:13:19.194Z,2.07
2023-03-29T10:16:24.924Z,2.37
2023-03-29T10:19:35.112Z,1.35
2023-03-29T10:22:40.660Z,1.98
2023-03-29T10:25:43.527Z,1.60
2023-03-29T10:28:46.816Z,1.80
2023-03-29T10:31:50.568Z,1.70
2023-03-29T10:34:54.924Z,1.70
2023-03-29T10:37:59.623Z,1.92
2023-03-29T10:41:11.883Z,1.12
2023-03-29T10:44:29.337Z,1.60
2023-03-29T10:47:34.604Z,1.70
2023-03-29T10:50:38.437Z,2.05
2023-03-29T10:53:42.838Z,1.42
2023-03-29T10:56:58.266Z,1.80
2023-03-29T11:00:27.376Z,1.43
2023-03-29T11:03:40.685Z,1.67
2023-03-29T11:06:56.528Z,1.42
2023-03-29T11:10:28.641Z,1.80
2023-03-29T11:14:23.672Z,1.90
2023-03-29T11:17:32.820Z,1.80
2023-03-29T11:20:44.943Z,1.70
2023-03-29T11:24:13.164Z,2.03
2023-03-29T11:27:30.295Z,2.30
2023-03-29T11:30:48.662Z,1.67
2023-03-29T11:34:15.791Z,1.60
2023-03-29T11:37:50.046Z,1.40
2023-03-29T11:41:11.178Z,1.50
2023-03-29T11:44:19.881Z,2.10
2023-03-29T11:47:27.658Z,1.33
2023-03-29T11:50:45.179Z,2.60
2023-03-29T11:53:58.610Z,1.87
2023-03-29T11:57:12.550Z,1.23
2023-03-29T12:00:19.373Z,1.70
2023-03-29T12:03:44.740Z,2.20
2023-03-29T12:07:24.242Z,2.13
2023-03-29T12:10:36.532Z,1.40
2023-03-29T12:13:45.316Z,2.08
2023-03-29T12:16:57.565Z,1.60
2023-03-29T12:20:07.295Z,2.00
2023-03-29T12:23:17.033Z,1.90
2023-03-29T12:26:40.737Z,1.90
2023-03-29T12:30:03.037Z,1.60
2023-03-29T12:33:29.518Z,2.05
2023-03-29T12:36:57.701Z,2.28
2023-03-29T12:40:13.239Z,2.00
2023-03-29T12:43:33.020Z,2.33
2023-03-29T12:46:36.894Z,2.00
2023-03-29T12:49:41.104Z,1.40
2023-03-29T12:52:43.955Z,1.40
2023-03-29T12:55:50.772Z,1.70
2023-03-29T12:59:12.039Z,1.30
2023-03-29T13:02:15.973Z,2.20
2023-03-29T13:05:34.848Z,1.20
2023-03-29T13:08:44.170Z,0.80
2023-03-29T13:11:57.420Z,1.40
2023-03-29T13:15:06.406Z,1.20
2023-03-29T13:18:48.868Z,1.05
2023-03-29T13:22:07.609Z,0.98
2023-03-29T13:25:41.598Z,1.17
2023-03-29T13:29:19.012Z,3.63
2023-03-29T13:32:28.069Z,1.20
2023-03-29T13:35:40.318Z,1.80
2023-03-29T13:38:51.922Z,2.20
2023-03-29T13:42:07.391Z,2.47
2023-03-29T13:45:17.549Z,3.97
2023-03-29T13:48:30.059Z,1.53
2023-03-29T13:51:37.288Z,1.50
2023-03-29T13:55:02.235Z,1.70
2023-03-29T13:58:14.184Z,1.73
2023-03-29T14:01:23.489Z,1.60
2023-03-29T14:04:34.624Z,1.67
2023-03-29T14:07:40.217Z,1.50
2023-03-29T14:10:45.520Z,0.77
2023-03-29T14:13:49.202Z,1.33
2023-03-29T14:16:54.320Z,1.00
2023-03-29T14:19:59.773Z,1.80
2023-03-29T14:23:10.471Z,1.92
2023-03-29T14:26:19.184Z,3.95
2023-03-29T14:29:25.040Z,7.28
2023-03-29T14:32:31.139Z,2.03
2023-03-29T14:35:34.798Z,1.97
2023-03-29T14:38:38.189Z,1.20
2023-03-29T14:41:47.867Z,1.00
2023-03-29T14:44:51.250Z,1.70
2023-03-29T14:47:54.797Z,1.47
2023-03-29T14:50:57.933Z,1.87
2023-03-29T14:54:04.144Z,1.20
2023-03-29T14:57:07.595Z,2.22
2023-03-29T15:00:26.261Z,2.33
2023-03-29T15:03:29.653Z,2.80
2023-03-29T15:06:38.750Z,2.70
2023-03-29T15:09:45.335Z,1.80
2023-03-29T15:12:49.821Z,4.45
2023-03-29T15:15:56.692Z,1.90
2023-03-29T15:19:02.238Z,3.70
2023-03-29T15:22:11.819Z,4.23
2023-03-29T15:25:19.981Z,2.15
2023-03-29T15:28:30.190Z,3.55
2023-03-29T15:31:36.296Z,1.52
2023-03-29T15:34:39.413Z,1.60
2023-03-29T15:37:43.813Z,1.13
2023-03-29T15:40:48.470Z,1.55
2023-03-29T15:43:51.664Z,0.90
2023-03-29T15:47:00.022Z,1.73
2023-03-29T15:50:03.467Z,1.23
2023-03-29T15:53:15.197Z,1.37
2023-03-29T15:56:23.157Z,2.15
2023-03-29T15:59:26.373Z,1.60
2023-03-29T16:02:29.987Z,1.80
2023-03-29T16:05:33.760Z,9.40
2023-03-29T16:08:36.806Z,13.13
2023-03-29T16:11:41.998Z,4.75
2023-03-29T16:14:45.176Z,5.97
2023-03-29T16:17:48.571Z,6.55
2023-03-29T16:20:52.029Z,3.50
2023-03-29T16:23:55.618Z,0.90
2023-03-29T16:26:59.962Z,2.12
2023-03-29T16:30:04.064Z,0.65
2023-03-29T16:33:08.969Z,0.65
2023-03-29T16:36:12.626Z,1.00
2023-03-29T16:39:16.414Z,0.63
2023-03-29T16:42:19.618Z,0.65
2023-03-29T16:45:23.595Z,1.05
2023-03-29T16:48:27.325Z,0.88
2023-03-29T16:51:31.176Z,1.40
2023-03-29T16:54:34.555Z,1.40
2023-03-29T16:57:37.537Z,1.67
2023-03-29T17:00:41.244Z,4.95
2023-03-29T17:03:45.964Z,3.15
2023-03-29T17:06:49.587Z,3.13
2023-03-29T17:09:52.839Z,1.83
2023-03-29T17:12:56.385Z,3.60
2023-03-29T17:15:59.763Z,7.15
2023-03-29T17:19:03.379Z,5.40
2023-03-29T17:22:06.949Z,4.90
2023-03-29T17:25:10.677Z,4.90
2023-03-29T17:28:13.979Z,3.67
2023-03-29T17:31:19.933Z,3.70
2023-03-29T17:34:23.999Z,4.45
2023-03-29T17:37:31.131Z,3.47
2023-03-29T17:40:34.366Z,4.30
2023-03-29T17:43:38.319Z,3.12
2023-03-29T17:46:41.549Z,2.87
2023-03-29T17:49:45.170Z,2.05
2023-03-29T17:52:52.649Z,4.70
2023-03-29T17:55:56.851Z,3.40
2023-03-29T17:59:00.839Z,3.58
2023-03-29T18:02:06.334Z,4.07
2023-03-29T18:05:15.295Z,3.92
2023-03-29T18:08:19.244Z,3.43
2023-03-29T18:11:25.449Z,3.90
2023-03-29T18:14:29.007Z,9.20
2023-03-29T18:17:33.237Z,10.65
2023-03-29T18:20:36.585Z,8.90
2023-03-29T18:23:42.654Z,13.87
2023-03-29T18:26:45.949Z,4.73
2023-03-29T18:29:50.824Z,4.60
2023-03-29T18:32:55.115Z,4.93
2023-03-29T18:35:58.752Z,12.75
2023-03-29T18:39:06.011Z,12.50
2023-03-29T18:42:12.277Z,5.70
2023-03-29T18:45:17.014Z,7.28
2023-03-29T18:48:23.326Z,14.23
2023-03-29T18:51:29.313Z,9.55
2023-03-29T18:54:34.840Z,7.13
2023-03-29T18:57:39.140Z,7.53
2023-03-29T19:00:45.053Z,13.15
2023-03-29T19:03:49.372Z,9.88
2023-03-29T19:06:56.684Z,9.30
2023-03-29T19:10:00.760Z,8.03
2023-03-29T19:13:06.377Z,5.10
2023-03-29T19:16:11.186Z,4.37
2023-03-29T19:19:15.077Z,4.78
2023-03-29T19:22:19.161Z,5.53
2023-03-29T19:25:24.066Z,6.03
2023-03-29T19:28:28.167Z,5.53
2023-03-29T19:31:36.618Z,4.82
2023-03-29T19:34:41.418Z,5.37
2023-03-29T19:37:45.894Z,8.90
2023-03-29T19:40:52.228Z,11.73
2023-03-29T19:43:57.042Z,11.10
2023-03-29T19:47:01.022Z,9.52
2023-03-29T19:50:06.022Z,7.75
2023-03-29T19:53:12.185Z,6.97
2023-03-29T19:56:16.275Z,6.17
2023-03-29T19:59:20.791Z,4.87
2023-03-29T20:02:27.781Z,5.00
2023-03-29T20:05:31.660Z,4.37
2023-03-29T20:08:39.176Z,5.10
2023-03-29T20:11:44.570Z,5.13
2023-03-29T20:14:47.626Z,4.13
2023-03-29T20:17:53.199Z,4.50
2023-03-29T20:20:57.687Z,4.12
2023-03-29T20:24:01.417Z,3.72
2023-03-29T20:27:04.755Z,3.20
2023-03-29T20:30:10.152Z,3.30
2023-03-29T20:33:13.689Z,2.80
2023-03-29T20:36:23.155Z,3.70
2023-03-29T20:39:26.968Z,3.75
2023-03-29T20:42:31.166Z,2.70
2023-03-29T20:45:42.931Z,3.50
2023-03-29T20:48:54.984Z,2.28
2023-03-29T20:52:03.539Z,2.20
2023-03-29T20:55:06.938Z,1.70
2023-03-29T20:58:09.823Z,2.37
2023-03-29T21:01:14.567Z,2.20
2023-03-29T21:04:17.471Z,2.22
2023-03-29T21:07:21.944Z,1.90
2023-03-29T21:10:26.444Z,2.33
2023-03-29T21:13:29.558Z,2.20
2023-03-29T21:16:32.484Z,1.87
2023-03-29T21:19:38.339Z,2.15
2023-03-29T21:22:43.338Z,2.28
2023-03-29T21:25:46.402Z,2.30
2023-03-29T21:28:49.285Z,2.70
2023-03-29T21:31:52.375Z,3.30
2023-03-29T21:34:55.207Z,3.60
2023-03-29T21:37:58.282Z,4.28
2023-03-29T21:41:02.662Z,4.65
2023-03-29T21:44:06.276Z,3.60
2023-03-29T21:47:09.338Z,3.57
2023-03-29T21:50:12.698Z,3.45
2023-03-29T21:53:16.295Z,3.58
2023-03-29T21:56:19.364Z,3.03
2023-03-29T21:59:22.055Z,3.20
2023-03-29T22:02:25.376Z,7.10
2023-03-29T22:05:28.685Z,3.95
2023-03-29T22:08:31.774Z,7.82
2023-03-29T22:11:34.955Z,5.65
2023-03-29T22:14:37.851Z,5.73
2023-03-29T22:17:43.001Z,7.40
2023-03-29T22:20:46.929Z,6.45
2023-03-29T22:23:52.788Z,6.90
2023-03-29T22:26:55.576Z,5.30
2023-03-29T22:29:59.012Z,5.30
2023-03-29T22:33:01.897Z,4.20
2023-03-29T22:36:27.141Z,4.12
2023-03-29T22:39:30.249Z,3.90
2023-03-29T22:42:33.379Z,3.90
2023-03-29T22:45:36.574Z,3.00
2023-03-29T22:48:40.260Z,3.30
2023-03-29T22:51:43.133Z,3.72
2023-03-29T22:54:46.494Z,2.97
2023-03-29T22:57:49.402Z,2.70
2023-03-29T23:00:53.415Z,3.30
2023-03-29T23:03:56.491Z,2.90
2023-03-29T23:07:00.468Z,3.12
2023-03-29T23:10:07.854Z,3.15
2023-03-29T23:13:13.079Z,2.92
2023-03-29T23:16:15.981Z,2.93
2023-03-29T23:19:19.438Z,3.10
2023-03-29T23:22:22.883Z,3.58
2023-03-29T23:25:27.777Z,3.40
2023-03-29T23:28:31.690Z,3.65
2023-03-29T23:31:37.953Z,3.63
2023-03-29T23:34:40.980Z,3.70
2023-03-29T23:37:45.188Z,3.42
2023-03-29T23:40:58.969Z,2.87
2023-03-29T23:44:03.833Z,2.35
2023-03-29T23:47:07.445Z,2.57
2023-03-29T23:50:17.004Z,3.20
2023-03-29T23:53:21.071Z,2.87
2023-03-29T23:56:24.525Z,2.53
2023-03-29T23:59:30.838Z,2.70
